Time;durP1;ratioP1;P1;durP2;ratioP2;P2;SDS_P1;SDS_P2;PMS_P1;PMS_P2;Temp;Humidity;BMP_temperature;BMP_pressure;BME280_temperature;BME280_humidity;BME280_pressure;Samples;Min_cycle;Max_cycle;Signal;HPM_P1;HPM_P2
2024/02/04 00:00:37;;;;;;;;;;;;;;;26.99;37.89;95335.91;5054201;28;9406;-56
2024/02/04 00:03:09;;;;;;;;;;;;;;;27.00;37.89;95340.19;5066242;28;9060;-56
2024/02/04 00:05:36;;;;;;;;;;;;;;;27.00;37.66;95348.47;5057202;28;7413;-56
2024/02/04 00:08:17;;;;;;;;;;;;;;;26.97;37.66;95338.41;5037071;28;7255;-56
2024/02/04 00:10:44;;;;;;;;;;;;;;;26.99;37.50;95346.97;5075192;28;7291;-56
2024/02/04 00:13:23;;;;;;;;;;;;;;;26.99;37.72;95341.44;5041671;28;7426;-56
2024/02/04 00:15:49;;;;;;;;;;;;;;;26.99;37.52;95341.44;5064456;28;9106;-56
2024/02/04 00:18:28;;;;;;;;;;;;;;;27.02;37.86;95345.22;5063605;28;9025;-56
2024/02/04 00:20:55;;;;;;;;;;;;;;;27.01;37.59;95338.97;5044161;28;7187;-56
2024/02/04 00:23:30;;;;;;;;;;;;;;;27.00;37.88;95342.97;5044837;28;6985;-56
2024/02/04 00:26:05;;;;;;;;;;;;;;;26.97;37.89;95343.94;5050344;28;8779;-56
2024/02/04 00:28:43;;;;;;;;;;;;;;;26.96;37.58;95359.00;5048370;28;8804;-56
2024/02/04 00:31:26;;;;;;;;;;;;;;;26.95;37.54;95367.81;5022085;28;8970;-55
2024/02/04 00:33:58;;;;;;;;;;;;;;;26.97;37.74;95360.50;5050387;28;7906;-56
2024/02/04 00:36:37;;;;;;;;;;;;;;;26.97;37.82;95370.81;5043943;28;7293;-56
2024/02/04 00:39:05;;;;;;;;;;;;;;;26.99;37.36;95374.56;5046650;28;7083;-55
2024/02/04 00:41:30;;;;;;;;;;;;;;;26.99;37.45;95387.66;5059395;28;8901;-55
2024/02/04 00:43:56;;;;;;;;;;;;;;;26.98;38.22;95391.66;5055595;28;7802;-55
2024/02/04 00:46:27;;;;;;;;;;;;;;;26.97;37.11;95393.66;5047020;28;8778;-55
2024/02/04 00:49:01;;;;;;;;;;;;;;;26.99;37.35;95384.88;5043554;28;7088;-55
2024/02/04 00:51:31;;;;;;;;;;;;;;;26.97;37.97;95393.66;5050485;28;7179;-56
2024/02/04 00:54:08;;;;;;;;;;;;;;;26.97;37.62;95395.66;5040439;28;7064;-56
2024/02/04 00:56:38;;;;;;;;;;;;;;;26.97;37.36;95406.72;5059077;28;7005;-56
2024/02/04 00:59:30;;;;;;;;;;;;;;;26.95;37.69;95418.22;5049946;28;7259;-56
2024/02/04 01:01:59;;;;;;;;;;;;;;;26.95;37.52;95423.03;5074389;28;7291;-55
2024/02/04 01:04:27;;;;;;;;;;;;;;;26.94;37.70;95422.25;5052022;28;7175;-56
2024/02/04 01:07:03;;;;;;;;;;;;;;;26.91;37.32;95412.19;5051065;28;10805;-55
2024/02/04 01:09:37;;;;;;;;;;;;;;;26.93;37.68;95409.69;5060889;28;6994;-56
2024/02/04 01:12:08;;;;;;;;;;;;;;;26.90;37.41;95402.41;5058576;28;6988;-56
2024/02/04 01:14:34;;;;;;;;;;;;;;;26.89;37.95;95395.38;5064664;28;6993;-56
2024/02/04 01:17:02;;;;;;;;;;;;;;;26.91;37.88;95406.69;5056579;28;7448;-55
2024/02/04 01:19:59;;;;;;;;;;;;;;;26.90;37.45;95416.22;5066085;28;8781;-55
2024/02/04 01:22:45;;;;;;;;;;;;;;;26.92;37.54;95414.44;5036340;28;7347;-56
2024/02/04 01:25:12;;;;;;;;;;;;;;;26.91;37.80;95414.97;5037746;28;9046;-56
2024/02/04 01:28:06;;;;;;;;;;;;;;;26.92;37.37;95402.69;5029003;28;8600;-56
2024/02/04 01:30:35;;;;;;;;;;;;;;;26.91;37.80;95390.09;5051234;28;7345;-55
2024/02/04 01:33:01;;;;;;;;;;;;;;;26.91;37.64;95368.03;5033313;28;7176;-55
2024/02/04 01:35:37;;;;;;;;;;;;;;;26.88;37.36;95380.06;5046529;28;7208;-56
2024/02/04 01:38:16;;;;;;;;;;;;;;;26.88;37.70;95385.59;5046808;28;9788;-56
2024/02/04 01:40:54;;;;;;;;;;;;;;;26.89;37.79;95382.34;5029716;28;7183;-56
2024/02/04 01:43:21;;;;;;;;;;;;;;;26.89;37.49;95382.34;5037047;28;7227;-55
2024/02/04 01:45:49;;;;;;;;;;;;;;;26.85;37.79;95375.53;5017619;28;7003;-55
2024/02/04 01:48:15;;;;;;;;;;;;;;;26.87;37.44;95373.03;5028308;28;9396;-56
2024/02/04 01:50:56;;;;;;;;;;;;;;;26.87;37.43;95373.03;5036970;28;7067;-56
2024/02/04 01:53:34;;;;;;;;;;;;;;;26.86;37.54;95364.00;5050299;28;6989;-56
2024/02/04 01:56:00;;;;;;;;;;;;;;;26.87;37.79;95356.47;5048782;28;9511;-55
2024/02/04 01:58:27;;;;;;;;;;;;;;;26.87;37.28;95348.19;5059274;28;7282;-55
2024/02/04 02:00:57;;;;;;;;;;;;;;;26.88;37.46;95341.44;5049230;28;6992;-55
2024/02/04 02:03:26;;;;;;;;;;;;;;;26.87;37.25;95328.88;5052340;28;9081;-55
2024/02/04 02:05:54;;;;;;;;;;;;;;;26.87;37.28;95312.31;5058383;28;9188;-56
2024/02/04 02:08:22;;;;;;;;;;;;;;;26.87;37.46;95309.53;5055780;28;7054;-55
2024/02/04 02:10:57;;;;;;;;;;;;;;;26.87;37.50;95307.53;5052754;28;8731;-56
2024/02/04 02:13:34;;;;;;;;;;;;;;;26.83;38.18;95306.28;5050059;28;7435;-56
2024/02/04 02:16:13;;;;;;;;;;;;;;;26.86;37.32;95302.53;5038425;28;9105;-56
2024/02/04 02:19:06;;;;;;;;;;;;;;;26.85;37.52;95298.25;5058137;28;7267;-56
2024/02/04 02:21:51;;;;;;;;;;;;;;;26.84;37.38;95302.25;5054112;28;7270;-40
2024/02/04 02:24:39;;;;;;;;;;;;;;;26.85;37.66;95301.75;5058776;28;8957;-41
2024/02/04 02:27:07;;;;;;;;;;;;;;;26.87;37.03;95301.25;5057209;28;9065;-41
2024/02/04 02:29:45;;;;;;;;;;;;;;;26.81;37.42;95301.25;5055937;28;7230;-42
2024/02/04 02:32:17;;;;;;;;;;;;;;;26.84;37.63;95302.25;5050977;28;7430;-40
2024/02/04 02:34:46;;;;;;;;;;;;;;;26.84;37.35;95318.81;5050597;28;7016;-41
2024/02/04 02:37:51;;;;;;;;;;;;;;;26.84;37.37;95324.31;5051945;28;7062;-42
2024/02/04 02:40:38;;;;;;;;;;;;;;;26.83;37.28;95322.84;4999227;28;8182;-40
2024/02/04 02:43:06;;;;;;;;;;;;;;;26.80;37.53;95323.81;4976568;28;7497;-42
2024/02/04 02:45:34;;;;;;;;;;;;;;;26.84;37.36;95335.38;4979005;28;7107;-44
2024/02/04 02:48:01;;;;;;;;;;;;;;;26.78;37.31;95334.59;4986422;28;7001;-41
2024/02/04 02:50:28;;;;;;;;;;;;;;;26.80;37.57;95338.38;4992043;28;7191;-40
2024/02/04 02:53:15;;;;;;;;;;;;;;;26.82;37.17;95346.16;4974801;28;8944;-39
2024/02/04 02:55:41;;;;;;;;;;;;;;;26.80;37.32;95362.47;4955531;28;7334;-42
2024/02/04 02:58:22;;;;;;;;;;;;;;;26.79;37.42;95366.47;4978557;28;7573;-40
2024/02/04 03:00:48;;;;;;;;;;;;;;;26.80;37.31;95365.97;4977560;28;7823;-40
2024/02/04 03:03:15;;;;;;;;;;;;;;;26.78;37.55;95374.00;4974306;28;7233;-40
2024/02/04 03:05:49;;;;;;;;;;;;;;;26.77;37.39;95363.47;4990539;28;7239;-40
2024/02/04 03:08:16;;;;;;;;;;;;;;;26.79;37.67;95367.25;4975542;28;7490;-40
2024/02/04 03:10:42;;;;;;;;;;;;;;;26.78;37.35;95371.25;4980198;28;9573;-40
2024/02/04 03:13:08;;;;;;;;;;;;;;;26.79;37.29;95366.47;4995717;28;7638;-40
2024/02/04 03:15:50;;;;;;;;;;;;;;;26.77;37.58;95368.97;5065959;28;8751;-40
2024/02/04 03:18:18;;;;;;;;;;;;;;;26.78;37.45;95368.47;5043102;28;7296;-41
2024/02/04 03:20:53;;;;;;;;;;;;;;;26.78;37.34;95370.47;5067579;28;8168;-42
2024/02/04 03:23:38;;;;;;;;;;;;;;;26.79;37.33;95377.53;5039364;28;9097;-41
2024/02/04 03:26:04;;;;;;;;;;;;;;;26.76;37.65;95367.47;5054460;28;7925;-40
2024/02/04 03:28:33;;;;;;;;;;;;;;;26.77;37.60;95382.78;5038109;28;7435;-40
2024/02/04 03:31:01;;;;;;;;;;;;;;;26.77;37.29;95371.75;5042204;28;9109;-37
2024/02/04 03:33:28;;;;;;;;;;;;;;;26.76;37.31;95375.75;5065244;28;7359;-37
2024/02/04 03:35:54;;;;;;;;;;;;;;;26.76;37.46;95379.25;5044884;28;8757;-37
2024/02/04 03:38:22;;;;;;;;;;;;;;;26.77;37.05;95382.78;5050658;28;8119;-37
2024/02/04 03:40:49;;;;;;;;;;;;;;;26.74;37.76;95381.75;5048243;28;7190;-37
2024/02/04 03:43:55;;;;;;;;;;;;;;;26.77;37.45;95388.31;5111535;27;6714;-36
2024/02/04 03:46:21;;;;;;;;;;;;;;;26.74;37.34;95390.03;5084360;28;6993;-36
2024/02/04 03:48:49;;;;;;;;;;;;;;;26.74;37.38;95395.56;5087055;28;8870;-36
2024/02/04 03:51:28;;;;;;;;;;;;;;;26.71;37.42;95398.50;5072179;28;7352;-36
2024/02/04 03:53:57;;;;;;;;;;;;;;;26.72;37.20;95411.06;5072651;28;9083;-36
2024/02/04 03:56:24;;;;;;;;;;;;;;;26.73;37.53;95405.09;5071476;28;7959;-36
2024/02/04 03:58:54;;;;;;;;;;;;;;;26.72;37.57;95422.13;5069015;28;9247;-36
2024/02/04 04:01:20;;;;;;;;;;;;;;;26.72;37.57;95427.63;5088449;28;9073;-36
2024/02/04 04:03:48;;;;;;;;;;;;;;;26.74;37.48;95425.94;5087956;28;7212;-36
2024/02/04 04:06:20;;;;;;;;;;;;;;;26.73;37.64;95431.94;5071577;28;6990;-36
2024/02/04 04:08:49;;;;;;;;;;;;;;;26.73;37.32;95435.44;5068403;28;7499;-36
2024/02/04 04:11:17;;;;;;;;;;;;;;;26.72;37.41;95433.16;5064178;28;9498;-36
2024/02/04 04:13:48;;;;;;;;;;;;;;;26.71;37.58;95426.09;5089630;28;7025;-36
2024/02/04 04:16:22;;;;;;;;;;;;;;;26.71;37.60;95428.88;5070000;28;7458;-36
2024/02/04 04:18:58;;;;;;;;;;;;;;;26.72;37.58;95424.88;5067646;28;8167;-37
2024/02/04 04:21:54;;;;;;;;;;;;;;;26.72;37.57;95422.13;5078740;28;7240;-37
2024/02/04 04:24:22;;;;;;;;;;;;;;;26.69;37.13;95420.34;5007514;28;9111;-37
2024/02/04 04:27:02;;;;;;;;;;;;;;;26.69;37.30;95417.56;5007187;28;9079;-36
2024/02/04 04:29:31;;;;;;;;;;;;;;;26.69;37.35;95406.53;4997411;28;7280;-36
2024/02/04 04:31:57;;;;;;;;;;;;;;;26.68;37.70;95408.56;4999906;28;7026;-36
2024/02/04 04:34:23;;;;;;;;;;;;;;;26.69;37.45;95414.81;4985827;28;7153;-36
2024/02/04 04:36:51;;;;;;;;;;;;;;;26.70;37.21;95410.81;4979535;28;7268;-36
2024/02/04 04:39:33;;;;;;;;;;;;;;;26.68;37.28;95411.31;5002943;28;6997;-36
2024/02/04 04:42:01;;;;;;;;;;;;;;;26.67;37.15;95407.03;5005121;28;7411;-40
2024/02/04 04:44:29;;;;;;;;;;;;;;;26.65;37.59;95406.00;5006904;28;7367;-40
2024/02/04 04:46:57;;;;;;;;;;;;;;;26.69;37.12;95410.06;5000071;28;7227;-40
2024/02/04 04:49:23;;;;;;;;;;;;;;;26.68;37.04;95402.28;5006911;28;7187;-40
2024/02/04 04:51:59;;;;;;;;;;;;;;;26.68;37.54;95400.28;5001439;28;9257;-40
2024/02/04 04:54:27;;;;;;;;;;;;;;;26.67;37.45;95404.28;4981949;28;7144;-41
2024/02/04 04:56:55;;;;;;;;;;;;;;;26.66;37.40;95399.25;4985207;28;7212;-40
2024/02/04 04:59:21;;;;;;;;;;;;;;;26.64;37.71;95394.22;4978043;28;8796;-40
2024/02/04 05:01:49;;;;;;;;;;;;;;;26.68;37.51;95388.47;5067090;28;9087;-39
2024/02/04 05:04:21;;;;;;;;;;;;;;;26.66;37.27;95374.41;5040185;28;7167;-41
2024/02/04 05:06:51;;;;;;;;;;;;;;;26.66;37.22;95379.94;5073277;28;7009;-39
2024/02/04 05:09:17;;;;;;;;;;;;;;;26.65;37.61;95383.94;5067235;28;9544;-40
2024/02/04 05:11:43;;;;;;;;;;;;;;;26.64;37.85;95399.00;5055608;28;7905;-42
2024/02/04 05:14:09;;;;;;;;;;;;;;;26.63;37.41;95394.72;5053827;28;9588;-40
2024/02/04 05:16:37;;;;;;;;;;;;;;;26.64;37.56;95393.47;5071442;28;7365;-39
2024/02/04 05:19:03;;;;;;;;;;;;;;;26.64;37.53;95394.22;5068777;28;9555;-39
2024/02/04 05:21:29;;;;;;;;;;;;;;;26.65;37.51;95394.97;5051120;28;7270;-40
2024/02/04 05:23:55;;;;;;;;;;;;;;;26.65;37.58;95395.72;5054582;28;7173;-39
2024/02/04 05:26:21;;;;;;;;;;;;;;;26.63;37.42;95391.94;5067404;28;9796;-40
2024/02/04 05:28:49;;;;;;;;;;;;;;;26.65;37.16;95383.94;5044268;28;9143;-41
2024/02/04 05:31:21;;;;;;;;;;;;;;;26.62;37.58;95380.16;5041007;28;7010;-39
2024/02/04 05:33:47;;;;;;;;;;;;;;;26.64;37.92;95377.66;5070150;28;8859;-40
2024/02/04 05:36:13;;;;;;;;;;;;;;;26.63;37.47;95375.41;5067607;28;9316;-39
2024/02/04 05:38:38;;;;;;;;;;;;;;;26.63;37.34;95370.63;5071369;28;6989;-39
2024/02/04 05:41:06;;;;;;;;;;;;;;;26.64;37.27;95372.13;5069577;28;7231;-41
2024/02/04 05:43:34;;;;;;;;;;;;;;;26.64;37.44;95371.41;5073556;28;9061;-40
2024/02/04 05:46:00;;;;;;;;;;;;;;;26.63;37.62;95375.41;5056807;28;7243;-39
2024/02/04 05:48:26;;;;;;;;;;;;;;;26.63;37.21;95370.63;5045997;28;7273;-40
2024/02/04 05:50:52;;;;;;;;;;;;;;;26.63;37.46;95372.63;5066845;28;6992;-36
2024/02/04 05:53:53;;;;;;;;;;;;;;;26.61;37.84;95375.91;5069170;28;9004;-36
2024/02/04 05:56:28;;;;;;;;;;;;;;;26.61;37.51;95373.13;4985093;28;7216;-36
2024/02/04 05:59:03;;;;;;;;;;;;;;;26.59;37.58;95369.38;4992870;28;9602;-36
2024/02/04 06:01:30;;;;;;;;;;;;;;;26.60;37.71;95359.84;4977616;28;7247;-55
2024/02/04 06:04:10;;;;;;;;;;;;;;;26.61;37.13;95370.38;4991594;28;7121;-36
2024/02/04 06:06:46;;;;;;;;;;;;;;;26.62;38.12;95365.63;4991427;28;8797;-36
2024/02/04 06:09:12;;;;;;;;;;;;;;;26.60;37.67;95368.84;4975291;28;7344;-36
2024/02/04 06:11:54;;;;;;;;;;;;;;;26.60;37.58;95379.91;4992784;28;7286;-36
2024/02/04 06:14:29;;;;;;;;;;;;;;;26.58;37.46;95379.63;4988637;28;9338;-36
2024/02/04 06:17:15;;;;;;;;;;;;;;;26.61;37.94;95395.22;4987114;28;7043;-36
2024/02/04 06:19:42;;;;;;;;;;;;;;;26.60;37.67;95385.41;4979281;28;7142;-36
2024/02/04 06:22:09;;;;;;;;;;;;;;;26.61;38.15;95380.66;4991717;28;7073;-36
2024/02/04 06:24:37;;;;;;;;;;;;;;;26.58;38.15;95379.63;4991639;28;7058;-36
2024/02/04 06:27:03;;;;;;;;;;;;;;;26.59;37.80;95383.91;4992475;28;7316;-36
2024/02/04 06:29:30;;;;;;;;;;;;;;;26.59;37.63;95400.47;4974457;28;6991;-36
2024/02/04 06:32:06;;;;;;;;;;;;;;;26.60;37.73;95415.03;5006025;28;9576;-36
2024/02/04 06:35:17;;;;;;;;;;;;;;;26.61;37.96;95424.81;5042440;28;7247;-36
2024/02/04 06:37:53;;;;;;;;;;;;;;;26.61;38.04;95435.84;5011388;28;7239;-36
2024/02/04 06:40:19;;;;;;;;;;;;;;;26.61;38.18;95436.59;4995250;28;9508;-36
2024/02/04 06:43:13;;;;;;;;;;;;;;;26.60;37.93;95445.38;5010042;28;7268;-36
2024/02/04 06:45:39;;;;;;;;;;;;;;;26.57;38.25;95444.38;4990633;28;7025;-36
2024/02/04 06:48:07;;;;;;;;;;;;;;;26.57;37.64;95438.09;5009482;28;7349;-36
2024/02/04 06:50:34;;;;;;;;;;;;;;;26.61;37.74;95444.13;5008246;28;9180;-36
2024/02/04 06:53:02;;;;;;;;;;;;;;;26.61;37.92;95453.16;4984116;28;7138;-36
2024/02/04 06:55:48;;;;;;;;;;;;;;;26.63;38.11;95466.47;5010318;28;6982;-36
2024/02/04 06:58:32;;;;;;;;;;;;;;;26.61;38.10;95460.69;5012223;28;7287;-36
2024/02/04 07:01:03;;;;;;;;;;;;;;;26.56;38.42;95461.38;5003502;28;9121;-36
2024/02/04 07:03:30;;;;;;;;;;;;;;;26.58;38.10;95456.13;4994723;28;7233;-36
2024/02/04 07:05:58;;;;;;;;;;;;;;;26.58;37.82;95453.38;4994341;28;9068;-36
2024/02/04 07:08:33;;;;;;;;;;;;;;;26.61;37.96;95449.63;4985909;28;7192;-36
2024/02/04 07:11:17;;;;;;;;;;;;;;;26.61;37.90;95447.66;5008253;28;7000;-39
2024/02/04 07:14:00;;;;;;;;;;;;;;;26.60;37.54;95440.59;5018260;28;10170;-39
2024/02/04 07:16:26;;;;;;;;;;;;;;;26.59;38.45;95452.91;5069886;28;9301;-39
2024/02/04 07:18:54;;;;;;;;;;;;;;;26.56;37.89;95453.13;5064794;28;8255;-39
2024/02/04 07:21:20;;;;;;;;;;;;;;;26.57;38.37;95449.13;5048370;28;9752;-39
2024/02/04 07:23:50;;;;;;;;;;;;;;;26.59;38.18;95447.38;5064099;28;8798;-39
2024/02/04 07:26:17;;;;;;;;;;;;;;;26.58;38.07;95450.63;5053015;28;7504;-39
2024/02/04 07:28:44;;;;;;;;;;;;;;;26.59;37.83;95441.09;5048961;28;7287;-41
2024/02/04 07:31:21;;;;;;;;;;;;;;;26.56;37.68;95429.03;5070705;28;7156;-39
2024/02/04 07:33:48;;;;;;;;;;;;;;;26.57;37.71;95441.59;5057176;28;7397;-39
2024/02/04 07:36:14;;;;;;;;;;;;;;;26.58;37.91;95434.06;5048346;28;7215;-40
2024/02/04 07:38:43;;;;;;;;;;;;;;;26.60;37.53;95429.56;5030716;28;7174;-40
2024/02/04 07:41:12;;;;;;;;;;;;;;;26.59;37.64;95425.31;5049951;28;9033;-39
2024/02/04 07:43:39;;;;;;;;;;;;;;;26.60;37.96;95428.81;5065132;28;7498;-39
2024/02/04 07:46:08;;;;;;;;;;;;;;;26.58;37.91;95428.53;5048214;28;7060;-39
2024/02/04 07:48:36;;;;;;;;;;;;;;;26.63;38.13;95433.34;5066698;28;7714;-38
2024/02/04 07:51:03;;;;;;;;;;;;;;;26.65;38.33;95437.13;5066993;28;6980;-39
2024/02/04 07:53:29;;;;;;;;;;;;;;;26.65;38.46;95434.38;5053386;28;7280;-40
2024/02/04 07:55:54;;;;;;;;;;;;;;;26.66;37.72;95435.13;5050663;28;9164;-40
2024/02/04 07:58:24;;;;;;;;;;;;;;;26.65;38.09;95425.31;5047981;28;6961;-38
2024/02/04 08:00:49;;;;;;;;;;;;;;;26.68;37.90;95422.34;5048854;28;8184;-39
2024/02/04 08:03:25;;;;;;;;;;;;;;;26.68;38.06;95422.34;5064780;28;9241;-39
2024/02/04 08:06:24;;;;;;;;;;;;;;;26.73;37.96;95429.19;5065411;28;8198;-39
2024/02/04 08:09:03;;;;;;;;;;;;;;;26.72;38.10;95427.63;4964867;28;9234;-39
2024/02/04 08:11:44;;;;;;;;;;;;;;;26.74;37.81;95420.41;4973792;28;7216;-40
2024/02/04 08:14:19;;;;;;;;;;;;;;;26.73;37.93;95413.34;4971311;28;7662;-41
2024/02/04 08:16:47;;;;;;;;;;;;;;;26.71;37.57;95409.56;4983833;28;7438;-38
2024/02/04 08:19:27;;;;;;;;;;;;;;;26.71;38.08;95415.06;4980576;28;7258;-40
2024/02/04 08:22:12;;;;;;;;;;;;;;;26.73;37.93;95412.63;4985450;28;7324;-37
2024/02/04 08:24:47;;;;;;;;;;;;;;;26.71;38.25;95420.59;4970898;28;9016;-36
2024/02/04 08:27:24;;;;;;;;;;;;;;;26.71;37.87;95417.84;4981817;28;9042;-36
2024/02/04 08:29:55;;;;;;;;;;;;;;;26.72;38.50;95416.59;4967578;28;7262;-36
2024/02/04 08:32:38;;;;;;;;;;;;;;;26.70;37.71;95408.06;4986700;28;9861;-36
2024/02/04 08:35:08;;;;;;;;;;;;;;;26.70;38.22;95419.09;4989979;28;7179;-36
2024/02/04 08:37:59;;;;;;;;;;;;;;;26.69;38.15;95420.34;4968507;28;7268;-36
2024/02/04 08:40:34;;;;;;;;;;;;;;;26.69;37.90;95423.84;4990084;28;8915;-36
2024/02/04 08:43:16;;;;;;;;;;;;;;;26.67;38.25;95414.53;4991283;28;7691;-36
2024/02/04 08:45:43;;;;;;;;;;;;;;;26.68;38.44;95410.56;5078909;28;7019;-36
2024/02/04 08:48:11;;;;;;;;;;;;;;;26.67;38.23;95404.28;5057879;28;7231;-36
2024/02/04 08:50:37;;;;;;;;;;;;;;;26.69;37.99;95399.00;5072497;28;9122;-36
2024/02/04 08:53:04;;;;;;;;;;;;;;;26.62;38.27;95395.97;5052717;28;8180;-36
2024/02/04 08:55:33;;;;;;;;;;;;;;;26.67;38.23;95396.00;5046371;28;7089;-36
2024/02/04 08:57:59;;;;;;;;;;;;;;;26.70;38.13;95397.00;5052243;28;7725;-36
2024/02/04 09:00:25;;;;;;;;;;;;;;;26.71;38.27;95393.00;5053288;28;9042;-38
2024/02/04 09:02:51;;;;;;;;;;;;;;;26.64;38.86;95385.19;5056186;28;9414;-37
2024/02/04 09:05:18;;;;;;;;;;;;;;;26.66;37.73;95391.75;5062383;28;7104;-37
2024/02/04 09:07:58;;;;;;;;;;;;;;;26.68;38.27;95377.44;5066805;28;7324;-37
2024/02/04 09:10:28;;;;;;;;;;;;;;;26.66;38.26;95375.19;5051109;28;6950;-37
2024/02/04 09:12:56;;;;;;;;;;;;;;;26.68;38.38;95388.47;5053369;28;7203;-37
2024/02/04 09:15:31;;;;;;;;;;;;;;;26.71;38.63;95399.28;5072061;28;8201;-37
2024/02/04 09:17:59;;;;;;;;;;;;;;;26.73;38.18;95385.03;5068993;28;7303;-37
2024/02/04 09:20:29;;;;;;;;;;;;;;;26.71;38.29;95381.94;5072750;28;7975;-37
2024/02/04 09:23:05;;;;;;;;;;;;;;;26.73;38.43;95385.03;5044762;28;7236;-37
2024/02/04 09:26:00;;;;;;;;;;;;;;;26.75;38.35;95396.31;5066103;28;9159;-37
2024/02/04 09:28:47;;;;;;;;;;;;;;;26.76;38.62;95397.81;5069966;28;9041;-37
2024/02/04 09:31:16;;;;;;;;;;;;;;;26.73;38.69;95393.31;5054779;28;7217;-38
2024/02/04 09:33:42;;;;;;;;;;;;;;;26.75;38.38;95393.56;5072767;28;7211;-38
2024/02/04 09:36:09;;;;;;;;;;;;;;;26.70;38.28;95385.97;5063926;28;8241;-38
2024/02/04 09:39:02;;;;;;;;;;;;;;;26.74;38.40;95389.28;5069074;28;7190;-39
2024/02/04 09:41:29;;;;;;;;;;;;;;;26.75;38.60;95396.31;5072401;28;9256;-41
2024/02/04 09:43:57;;;;;;;;;;;;;;;26.73;38.63;95401.59;5067323;28;8765;-38
2024/02/04 09:46:24;;;;;;;;;;;;;;;26.71;39.25;95398.50;5053945;28;9117;-39
2024/02/04 09:48:52;;;;;;;;;;;;;;;26.69;38.43;95392.72;5051942;28;7000;-39
2024/02/04 09:51:18;;;;;;;;;;;;;;;26.69;38.73;95387.22;5057321;28;9079;-39
2024/02/04 09:54:09;;;;;;;;;;;;;;;26.69;38.35;95396.25;5073749;28;7250;-38
2024/02/04 09:57:03;;;;;;;;;;;;;;;26.69;38.68;95401.00;5050184;28;7153;-38
2024/02/04 09:59:39;;;;;;;;;;;;;;;26.68;38.91;95399.50;5008188;28;6941;-39
2024/02/04 10:02:09;;;;;;;;;;;;;;;26.69;38.42;95403.78;4995391;28;9197;-39
2024/02/04 10:04:45;;;;;;;;;;;;;;;26.68;38.51;95413.31;4977862;28;7440;-38
2024/02/04 10:07:26;;;;;;;;;;;;;;;26.68;39.53;95405.03;5008338;28;7319;-39
2024/02/04 10:09:52;;;;;;;;;;;;;;;26.68;39.02;95400.28;4993273;28;7335;-39
2024/02/04 10:12:28;;;;;;;;;;;;;;;26.68;38.80;95408.56;4988244;28;9427;-38
2024/02/04 10:15:32;;;;;;;;;;;;;;;26.69;38.59;95403.78;5003934;28;7333;-38
2024/02/04 10:18:27;;;;;;;;;;;;;;;26.70;38.44;95413.56;4936998;28;7211;-39
2024/02/04 10:21:04;;;;;;;;;;;;;;;26.65;38.63;95398.50;4876497;29;7067;-39
2024/02/04 10:23:34;;;;;;;;;;;;;;;26.65;38.45;95401.25;4876587;29;9067;-38
2024/02/04 10:26:00;;;;;;;;;;;;;;;26.64;39.34;95404.50;4878528;29;7026;-38
2024/02/04 10:28:27;;;;;;;;;;;;;;;26.65;38.94;95406.00;4883398;29;9468;-38
2024/02/04 10:30:54;;;;;;;;;;;;;;;26.65;38.61;95406.78;4875671;29;9211;-39
2024/02/04 10:33:31;;;;;;;;;;;;;;;26.65;38.38;95406.00;4860152;29;7444;-39
2024/02/04 10:36:09;;;;;;;;;;;;;;;26.67;38.67;95400.75;4888599;29;7028;-38
2024/02/04 10:38:37;;;;;;;;;;;;;;;26.68;38.87;95396.75;4918779;29;9152;-39
2024/02/04 10:41:36;;;;;;;;;;;;;;;26.69;39.54;95392.72;4908026;29;8894;-41
2024/02/04 10:44:04;;;;;;;;;;;;;;;26.68;39.42;95385.72;4897940;29;7286;-42
2024/02/04 10:46:33;;;;;;;;;;;;;;;26.71;39.35;95379.19;4899356;29;7860;-44
2024/02/04 10:49:03;;;;;;;;;;;;;;;26.71;39.06;95373.66;4898301;29;7354;-41
2024/02/04 10:51:35;;;;;;;;;;;;;;;26.70;39.46;95377.69;4905645;29;6981;-41
2024/02/04 10:54:17;;;;;;;;;;;;;;;26.70;39.85;95383.97;4948921;28;7843;-42
2024/02/04 10:57:02;;;;;;;;;;;;;;;26.71;39.29;95379.94;4980766;28;9099;-41
2024/02/04 10:59:51;;;;;;;;;;;;;;;26.72;39.77;95373.19;5046933;28;7190;-42
2024/02/04 11:02:24;;;;;;;;;;;;;;;26.70;39.30;95367.41;5060662;28;6993;-42
2024/02/04 11:04:53;;;;;;;;;;;;;;;26.69;40.14;95356.84;5053055;28;7183;-42
2024/02/04 11:07:38;;;;;;;;;;;;;;;26.67;39.63;95367.63;5070968;28;8253;-41
2024/02/04 11:10:07;;;;;;;;;;;;;;;26.70;39.47;95369.41;5055031;28;7091;-41
2024/02/04 11:12:45;;;;;;;;;;;;;;;26.72;39.99;95364.91;5055490;28;7234;-41
2024/02/04 11:15:16;;;;;;;;;;;;;;;26.74;40.03;95343.13;5051129;28;7063;-40
2024/02/04 11:18:07;;;;;;;;;;;;;;;26.77;40.29;95352.44;5065134;28;8451;-41
2024/02/04 11:21:09;;;;;;;;;;;;;;;26.80;40.57;95340.38;5064001;28;7264;-40
2024/02/04 11:23:50;;;;;;;;;;;;;;;26.80;41.19;95345.91;5055564;28;7254;-40
2024/02/04 11:26:19;;;;;;;;;;;;;;;26.82;40.56;95343.38;5050227;28;9375;-43
2024/02/04 11:28:46;;;;;;;;;;;;;;;26.78;40.74;95338.13;5066955;28;9404;-42
2024/02/04 11:31:18;;;;;;;;;;;;;;;26.78;40.84;95331.84;5051382;28;9598;-42
2024/02/04 11:33:45;;;;;;;;;;;;;;;26.75;41.65;95327.31;5060404;28;7379;-41
2024/02/04 11:36:17;;;;;;;;;;;;;;;26.76;41.01;95328.81;5046290;28;7238;-40
2024/02/04 11:38:52;;;;;;;;;;;;;;;26.76;41.15;95329.59;5050019;28;7169;-41
2024/02/04 11:41:26;;;;;;;;;;;;;;;26.82;41.21;95324.06;5069012;28;9137;-43
2024/02/04 11:44:07;;;;;;;;;;;;;;;26.79;41.68;95305.75;5054551;28;9441;-40
2024/02/04 11:46:34;;;;;;;;;;;;;;;26.79;41.42;95311.28;5066080;28;8940;-42
2024/02/04 11:49:00;;;;;;;;;;;;;;;26.78;41.36;95305.00;5068161;28;7216;-41
2024/02/04 11:51:27;;;;;;;;;;;;;;;26.80;41.45;95307.25;5066786;28;8040;-39
2024/02/04 11:53:55;;;;;;;;;;;;;;;26.80;41.30;95307.25;5047476;28;9208;-39
2024/02/04 11:56:28;;;;;;;;;;;;;;;26.82;41.30;95304.75;5049718;28;7480;-39
2024/02/04 11:59:03;;;;;;;;;;;;;;;26.86;41.14;95299.75;5037542;28;9104;-40
2024/02/04 12:01:34;;;;;;;;;;;;;;;26.87;41.29;95302.03;5069265;28;7661;-40
2024/02/04 12:04:15;;;;;;;;;;;;;;;26.86;40.30;95297.75;5066174;28;8600;-39
2024/02/04 12:06:42;;;;;;;;;;;;;;;26.88;40.99;95302.78;5064069;28;9389;-40
2024/02/04 12:09:09;;;;;;;;;;;;;;;26.88;40.82;95302.78;5054941;28;7801;-39
2024/02/04 12:11:39;;;;;;;;;;;;;;;26.91;40.13;95299.00;5066148;28;7123;-39
2024/02/04 12:14:06;;;;;;;;;;;;;;;26.94;41.10;95311.06;5048794;28;7238;-39
2024/02/04 12:16:35;;;;;;;;;;;;;;;26.96;41.23;95306.56;5050229;28;7592;-39
2024/02/04 12:19:04;;;;;;;;;;;;;;;26.96;40.88;95303.03;5051422;28;7024;-39
2024/02/04 12:21:41;;;;;;;;;;;;;;;27.00;41.18;95298.03;5069303;28;9158;-39
2024/02/04 12:24:23;;;;;;;;;;;;;;;27.02;40.89;95295.50;5047373;28;7499;-40
2024/02/04 12:26:51;;;;;;;;;;;;;;;27.01;40.90;95297.53;5043298;28;7564;-39
2024/02/04 12:29:19;;;;;;;;;;;;;;;27.01;40.61;95294.03;5053597;28;7079;-38
2024/02/04 12:32:05;;;;;;;;;;;;;;;27.05;40.92;95300.06;5062454;28;7551;-39
2024/02/04 12:34:34;;;;;;;;;;;;;;;27.03;41.04;95288.75;5047978;28;9089;-39
2024/02/04 12:37:19;;;;;;;;;;;;;;;27.06;40.87;95296.78;5069494;28;7131;-39
2024/02/04 12:40:02;;;;;;;;;;;;;;;27.07;40.95;95294.78;5065815;28;7396;-40
2024/02/04 12:42:29;;;;;;;;;;;;;;;27.09;41.12;95292.28;5065011;28;7443;-39
2024/02/04 12:45:03;;;;;;;;;;;;;;;27.12;40.60;95274.72;5055994;28;7180;-39
2024/02/04 12:47:29;;;;;;;;;;;;;;;27.15;40.76;95282.75;5068508;28;7233;-40
2024/02/04 12:50:00;;;;;;;;;;;;;;;27.15;40.36;95268.19;5073875;28;7074;-40
2024/02/04 12:52:30;;;;;;;;;;;;;;;27.16;40.63;95266.94;5058845;28;8997;-39
2024/02/04 12:54:57;;;;;;;;;;;;;;;27.15;40.58;95260.66;5062918;28;9127;-41
2024/02/04 12:57:33;;;;;;;;;;;;;;;27.17;40.91;95269.19;5057992;28;7330;-39
2024/02/04 13:00:08;;;;;;;;;;;;;;;27.18;40.55;95269.94;5048102;28;7324;-39
2024/02/04 13:03:17;;;;;;;;;;;;;;;27.19;40.81;95263.91;5050555;28;8623;-57
2024/02/04 13:05:45;;;;;;;;;;;;;;;27.23;40.71;95269.94;5015759;28;9007;-57
2024/02/04 13:08:20;;;;;;;;;;;;;;;27.25;40.70;95259.16;5021900;28;7216;-57
2024/02/04 13:10:56;;;;;;;;;;;;;;;27.26;40.53;95246.09;5026919;28;7697;-57
2024/02/04 13:13:34;;;;;;;;;;;;;;;27.27;40.74;95261.44;5017276;28;7234;-57
2024/02/04 13:16:09;;;;;;;;;;;;;;;27.28;40.88;95247.09;5024422;28;7023;-57
2024/02/04 13:18:52;;;;;;;;;;;;;;;27.31;40.35;95257.16;5024319;28;9122;-57
2024/02/04 13:21:34;;;;;;;;;;;;;;;27.35;40.82;95256.91;5015430;28;8843;-57
2024/02/04 13:24:08;;;;;;;;;;;;;;;27.36;40.38;95252.94;5030423;28;7033;-58
2024/02/04 13:26:37;;;;;;;;;;;;;;;27.33;40.64;95245.59;5028300;28;8546;-57
2024/02/04 13:29:22;;;;;;;;;;;;;;;27.38;40.28;95253.19;5009296;28;7536;-57